KONZ

Grosse Ile Municipal Airport

Detroit/Grosse Ile, Michigan, USA
METAR KONZ 141155Z AUTO 00000KT 7SM OVC080 04/03 A3015 RMK AO2 T00410029 10041 20025
Observed Flight Rules
Dec-14 @ 11:55 UTC (25 minutes ago) Visual Flight Rules
Visibility Clouds
7 miles
  • Overcast at 8,000' AGL
Temperatures Readings
Current 4°C / 39°F
Dewpoint 3°C / 37°F
Humidity 93%
Altimeter 30.15" Hg
Pressure 1021 hPa
Elevation 180
METAR KONZ 141155Z AUTO 00000KT 7SM OVC080 04/03 A3015 RMK AO2 T00410029 10041 20025
Observed Flight Rules
Dec-14 @ 11:55 UTC
(25 minutes ago)
VFR
Clouds
  • Overcast at 8,000' AGL
Temperature Dewpoint
4°C / 39°F 3°C / 37°F
Humidity Altimeter Pressure
93% 30.15" Hg 1021 hPa